Hjorring, Denmark
Current Conditions -  °F | °C
As of 2:20 AM on Saturday 25 Oct 2014 (Local Time) from EKYT Reporting Station
Broken Clouds Broken Clouds  
Wind Chill: 54°   Ceiling: 1000
Heat Index: 54°   Visibility: 6mi
Dew Point: 52°   Wind: 20mph
Humidity: 94%   Direction: 180°S
Pressure: 29.85"   Gusts: NA
Location:  57.46°N, 9.98°E
Report Text: EKYT 250020Z 18017KT 9000 SCT008 BKN010 12/11 Q1011
Loading
Personal Weather Stations






























Interactive Weather Map
Tropical Storm Tracking
New forecast layout! Learn more

10-Day Weather Forecast

Advertisements
Track Severe Weather on mobile